Decoded Metar for LPMA (FUNCHAL/MADEIRA in PORTUGAL) (IATA:N/A) | Meteo·Mobile Aviation Weather
aviador You're here:

LPMA Decoded Metar

FUNCHAL/MADEIRA in PORTUGAL
Report Time2020-02-23 11:00:00
UTC Time2020-02-23 11:19:57
Flight Rules vfr VFR
Wind030° at 17 kt
W.Decomp.*RWY 05: 16.5 kt HW 4.1 kt LCW
Visibility9999 m
Phenomena:N/A
Clouds:Scattered 015 Hf
Expected CloudBase > 2,000 ft AGL from Temp-Dew spread
CeilingNone
Temp18°C (ISA +3)
Dew Point13°C (73% RH)
AAT12.8°C
QNH1028 hPa
Density Alt272 ft
Elevation180 ft
Report Wrong Elevation
Raw Report
LPMA 231100Z 03017KT 9999 SCT015 18/13 Q1028=

Extra information for LPMA:More info

Metar Taf Metar & Taf Last 4 Metars F.Rules Stats Wind Profile Meteogram Temp Stats Airport Information Weather charts Add Link Nearby VenuesMetar ALERT Operation Metar Decoded Social comments